^^
B2 Weather Station Historical Data
Daily Summary for March 25, 2019 Units:  English    Metric   Both
Daily Weekly Monthly Yearly Custom
  High: Low: Average:
Temperature: 44.5 °F 28.3 °F 37 °F
Dew Point: 35.8 °F 22.0 °F 30.4 °F
Humidity: 93% 57% 78%
Wind Speed: 23.0mph 6.9mph 15.4mph
Wind Gust: 18.8mph - -
Wind- - ENE
Pressure: 30.39 in 30.10 in -
Precipitation: 0.00 in    
Historical Graphs
 
 
Tabular Data for March 25, 2019
Time Temperature Dew Point Pressure Wind Wind Speed Wind Gust Humidity Rainfall Rate (Hourly) solar
00:04 36.8 °F 35.0 °F 30.12 in NE 15.0 mph 11.1 mph 93% 0.00 in 0.00 W/m2
00:09 36.7 °F 34.9 °F 30.12 in NNE 18.0 mph 11.0 mph 93% 0.00 in 0.00 W/m2
00:14 36.7 °F 34.9 °F 30.12 in NE 13.8 mph 8.5 mph 93% 0.00 in 0.00 W/m2
00:19 36.7 °F 34.9 °F 30.12 in NNE 12.7 mph 9.0 mph 93% 0.00 in 0.00 W/m2
00:24 36.6 °F 34.8 °F 30.12 in NE 13.8 mph 10.0 mph 93% 0.00 in 0.00 W/m2
00:29 36.5 °F 34.7 °F 30.12 in NNE 12.7 mph 8.5 mph 93% 0.00 in 0.00 W/m2
00:34 36.4 °F 34.6 °F 30.12 in NNE 16.1 mph 11.3 mph 93% 0.00 in 0.00 W/m2
00:39 36.3 °F 34.5 °F 30.12 in NNE 17.0 mph 12.4 mph 93% 0.00 in 0.00 W/m2
00:44 36.2 °F 34.4 °F 30.12 in NNE 15.0 mph 9.9 mph 93% 0.00 in 0.00 W/m2
00:49 36.2 °F 34.4 °F 30.12 in NNE 14.0 mph 11.8 mph 93% 0.00 in 0.00 W/m2
00:54 36.1 °F 34.3 °F 30.11 in NNE 13.8 mph 10.8 mph 93% 0.00 in 0.00 W/m2
00:59 36.2 °F 34.4 °F 30.12 in NNE 16.1 mph 11.1 mph 93% 0.00 in 0.00 W/m2
01:04 36.1 °F 34.3 °F 30.12 in NNE 17.3 mph 12.5 mph 93% 0.00 in 0.00 W/m2
01:09 36.1 °F 34.3 °F 30.12 in NNE 18.4 mph 10.3 mph 93% 0.00 in 0.00 W/m2
01:14 36.1 °F 34.3 °F 30.12 in NNE 15.0 mph 10.4 mph 93% 0.00 in 0.00 W/m2
01:19 36.1 °F 34.3 °F 30.12 in NNE 15.0 mph 8.4 mph 93% 0.00 in 0.00 W/m2
01:24 36.1 °F 34.3 °F 30.13 in NNE 16.1 mph 10.7 mph 93% 0.00 in 0.00 W/m2
01:29 36.1 °F 34.3 °F 30.13 in NNE 12.0 mph 10.7 mph 93% 0.00 in 0.00 W/m2
01:34 36.1 °F 34.3 °F 30.13 in NNE 13.8 mph 10.3 mph 93% 0.00 in 0.00 W/m2
01:39 36.1 °F 34.3 °F 30.13 in NNE 15.0 mph 11.3 mph 93% 0.00 in 0.00 W/m2
01:44 36.1 °F 34.3 °F 30.12 in NNE 15.0 mph 11.0 mph 93% 0.00 in 0.00 W/m2
01:49 36.1 °F 34.3 °F 30.12 in NNE 16.1 mph 12.0 mph 93% 0.00 in 0.00 W/m2
01:54 36.1 °F 34.3 °F 30.12 in NE 16.0 mph 12.9 mph 93% 0.00 in 0.00 W/m2
01:59 36.1 °F 34.3 °F 30.12 in North 12.7 mph 9.5 mph 93% 0.00 in 0.00 W/m2
02:04 36.0 °F 34.2 °F 30.11 in NNE 19.6 mph 12.0 mph 93% 0.00 in 0.00 W/m2
02:09 35.9 °F 34.1 °F 30.11 in NNE 15.0 mph 11.5 mph 93% 0.00 in 0.00 W/m2
02:14 35.7 °F 33.9 °F 30.11 in North 20.7 mph 14.0 mph 93% 0.00 in 0.00 W/m2
02:19 35.7 °F 33.9 °F 30.11 in NNE 19.6 mph 13.2 mph 93% 0.00 in 0.00 W/m2
02:24 35.6 °F 33.8 °F 30.11 in NNE 16.1 mph 12.4 mph 93% 0.00 in 0.00 W/m2
02:29 35.6 °F 33.8 °F 30.11 in NNE 15.0 mph 12.8 mph 93% 0.00 in 0.00 W/m2
02:34 35.6 °F 33.8 °F 30.11 in NNE 16.1 mph 11.6 mph 93% 0.00 in 0.00 W/m2
02:39 35.6 °F 33.8 °F 30.11 in North 13.8 mph 9.5 mph 93% 0.00 in 0.00 W/m2
02:44 35.5 °F 33.7 °F 30.10 in North 15.0 mph 11.9 mph 93% 0.00 in 0.00 W/m2
02:49 35.5 °F 33.7 °F 30.10 in NNE 17.3 mph 13.1 mph 93% 0.00 in 0.00 W/m2
02:54 35.4 °F 33.6 °F 30.11 in NNE 17.3 mph 10.2 mph 93% 0.00 in 0.00 W/m2
02:59 35.4 °F 33.6 °F 30.11 in North 15.0 mph 9.1 mph 93% 0.00 in 0.00 W/m2
03:04 35.4 °F 33.6 °F 30.11 in NNE 13.8 mph 10.6 mph 93% 0.00 in 0.00 W/m2
03:09 35.5 °F 33.7 °F 30.11 in NNE 13.8 mph 9.4 mph 93% 0.00 in 0.00 W/m2
03:14 35.5 °F 33.4 °F 30.11 in NNE 13.8 mph 9.5 mph 92% 0.00 in 0.00 W/m2
03:19 35.5 °F 33.4 °F 30.11 in North 11.5 mph 8.8 mph 92% 0.00 in 0.00 W/m2
03:24 35.6 °F 33.5 °F 30.11 in NNE 10.4 mph 10.3 mph 92% 0.00 in 0.00 W/m2
03:29 35.7 °F 33.6 °F 30.11 in NNE 11.5 mph 8.6 mph 92% 0.00 in 0.00 W/m2
03:34 35.9 °F 33.8 °F 30.11 in NNE 13.8 mph 9.1 mph 92% 0.00 in 0.00 W/m2
03:39 36.0 °F 33.9 °F 30.11 in NNE 12.7 mph 8.6 mph 92% 0.00 in 0.00 W/m2
03:44 36.1 °F 34.0 °F 30.11 in North 12.7 mph 9.6 mph 92% 0.00 in 0.00 W/m2
03:49 36.1 °F 34.0 °F 30.11 in NNE 13.0 mph 9.0 mph 92% 0.00 in 0.00 W/m2
03:54 36.2 °F 34.1 °F 30.11 in NNE 13.8 mph 9.9 mph 92% 0.00 in 0.00 W/m2
03:59 36.2 °F 34.1 °F 30.11 in North 15.0 mph 12.4 mph 92% 0.00 in 0.00 W/m2
04:04 36.2 °F 34.1 °F 30.11 in North 13.8 mph 9.3 mph 92% 0.00 in 0.00 W/m2
04:09 36.2 °F 33.8 °F 30.11 in North 12.7 mph 9.9 mph 91% 0.00 in 0.00 W/m2
04:14 36.1 °F 33.7 °F 30.11 in North 11.5 mph 9.6 mph 91% 0.00 in 0.00 W/m2
04:19 36.1 °F 33.7 °F 30.12 in NNE 12.7 mph 11.0 mph 91% 0.00 in 0.00 W/m2
04:24 36.0 °F 33.6 °F 30.12 in North 11.5 mph 8.1 mph 91% 0.00 in 0.00 W/m2
04:29 35.9 °F 33.5 °F 30.12 in NNE 11.5 mph 7.6 mph 91% 0.00 in 0.00 W/m2
04:34 35.7 °F 33.6 °F 30.12 in NNE 13.8 mph 9.3 mph 92% 0.00 in 0.00 W/m2
04:39 35.7 °F 33.6 °F 30.12 in North 12.7 mph 9.1 mph 92% 0.00 in 0.00 W/m2
04:44 35.8 °F 33.7 °F 30.13 in North 14.0 mph 8.7 mph 92% 0.00 in 0.00 W/m2
04:49 35.9 °F 33.8 °F 30.13 in North 13.0 mph 8.7 mph 92% 0.00 in 0.00 W/m2
04:54 35.9 °F 33.8 °F 30.13 in NE 15.0 mph 11.8 mph 92% 0.00 in 0.00 W/m2
04:59 35.9 °F 33.8 °F 30.13 in NNE 15.0 mph 9.8 mph 92% 0.00 in 0.00 W/m2
05:04 35.9 °F 33.8 °F 30.13 in NNE 16.1 mph 11.1 mph 92% 0.00 in 0.00 W/m2
05:09 35.9 °F 33.8 °F 30.13 in NNE 18.4 mph 12.8 mph 92% 0.00 in 0.00 W/m2
05:14 35.9 °F 33.8 °F 30.13 in NNE 16.1 mph 12.5 mph 92% 0.00 in 0.00 W/m2
05:19 35.9 °F 33.8 °F 30.13 in NNE 18.4 mph 10.8 mph 92% 0.00 in 0.00 W/m2
05:24 35.9 °F 33.8 °F 30.13 in NE 16.1 mph 12.3 mph 92% 0.00 in 0.00 W/m2
05:29 35.9 °F 33.8 °F 30.13 in NNE 18.4 mph 10.1 mph 92% 0.00 in 0.00 W/m2
05:34 35.8 °F 33.4 °F 30.13 in NNE 19.6 mph 11.8 mph 91% 0.00 in 0.00 W/m2
05:39 35.8 °F 33.4 °F 30.13 in NNW 17.0 mph 15.1 mph 91% 0.00 in 0.00 W/m2
05:44 35.8 °F 33.4 °F 30.13 in North 18.4 mph 13.1 mph 91% 0.00 in 0.00 W/m2
05:49 35.7 °F 33.3 °F 30.13 in North 17.3 mph 10.8 mph 91% 0.00 in 0.00 W/m2
05:54 35.7 °F 33.3 °F 30.14 in NNE 17.3 mph 12.9 mph 91% 0.00 in 0.00 W/m2
05:59 35.6 °F 33.2 °F 30.14 in NNE 17.3 mph 11.7 mph 91% 0.00 in 0.00 W/m2
06:04 35.5 °F 33.1 °F 30.14 in North 15.0 mph 13.1 mph 91% 0.00 in 0.00 W/m2
06:09 35.4 °F 33.0 °F 30.14 in North 18.4 mph 11.6 mph 91% 0.00 in 0.00 W/m2
06:14 35.4 °F 33.0 °F 30.14 in NNE 16.1 mph 11.7 mph 91% 0.00 in 0.00 W/m2
06:19 35.2 °F 32.6 °F 30.14 in NNE 23.0 mph 16.5 mph 90% 0.00 in 0.00 W/m2
06:24 35.2 °F 32.6 °F 30.14 in North 13.8 mph 10.7 mph 90% 0.00 in 0.00 W/m2
06:29 35.1 °F 32.5 °F 30.15 in NNE 16.1 mph 11.9 mph 90% 0.00 in 0.00 W/m2
06:34 34.9 °F 32.3 °F 30.15 in NNE 20.7 mph 16.9 mph 90% 0.00 in 0.00 W/m2
06:39 34.8 °F 31.9 °F 30.15 in NNE 17.3 mph 14.8 mph 89% 0.00 in 0.00 W/m2
06:44 34.8 °F 31.9 °F 30.15 in NNE 19.6 mph 15.0 mph 89% 0.00 in 0.00 W/m2
06:49 34.7 °F 31.8 °F 30.15 in NNE 16.1 mph 12.4 mph 89% 0.00 in 0.00 W/m2
06:54 34.6 °F 31.7 °F 30.16 in NNE 19.6 mph 10.9 mph 89% 0.00 in 0.00 W/m2
06:59 34.5 °F 31.6 °F 30.16 in NE 17.3 mph 16.0 mph 89% 0.00 in 0.00 W/m2
07:04 34.4 °F 31.2 °F 30.16 in NNE 17.3 mph 13.1 mph 88% 0.00 in 9.00 W/m2
07:09 34.3 °F 30.8 °F 30.16 in NNE 19.6 mph 12.4 mph 87% 0.00 in 11.00 W/m2
07:14 34.2 °F 30.4 °F 30.17 in NNE 20.7 mph 14.6 mph 86% 0.00 in 16.00 W/m2
07:19 34.2 °F 30.7 °F 30.18 in NNE 18.4 mph 13.0 mph 87% 0.00 in 21.00 W/m2
07:24 34.0 °F 30.5 °F 30.18 in North 18.4 mph 14.2 mph 87% 0.00 in 25.00 W/m2
07:29 33.9 °F 30.2 °F 30.18 in NE 19.6 mph 12.6 mph 86% 0.00 in 28.00 W/m2
07:34 33.8 °F 30.1 °F 30.18 in NE 17.3 mph 12.4 mph 86% 0.00 in 39.00 W/m2
07:39 33.8 °F 30.1 °F 30.19 in NNE 18.4 mph 14.6 mph 86% 0.00 in 69.00 W/m2
07:44 33.9 °F 30.2 °F 30.19 in NNE 20.7 mph 12.3 mph 86% 0.00 in 88.00 W/m2
07:49 34.4 °F 30.6 °F 30.19 in NNE 19.6 mph 10.7 mph 86% 0.00 in 162.00 W/m2
07:54 34.7 °F 30.9 °F 30.19 in NE 13.8 mph 11.0 mph 86% 0.00 in 185.00 W/m2
07:58 35.1 °F 31.3 °F 30.20 in NNE 19.6 mph 13.3 mph 86% 0.00 in 227.00 W/m2
08:03 35.5 °F 31.7 °F 30.20 in NNE 16.1 mph 11.7 mph 86% 0.00 in 271.00 W/m2
08:07 35.7 °F 31.6 °F 30.20 in North 13.8 mph 9.9 mph 85% 0.00 in 162.00 W/m2
08:12 35.7 °F 31.3 °F 30.20 in NNE 22.0 mph 18.8 mph 84% 0.00 in 294.00 W/m2
08:17 35.6 °F 30.6 °F 30.20 in NNE 19.6 mph 15.6 mph 82% 0.00 in 320.00 W/m2
08:22 35.3 °F 30.4 °F 30.20 in NE 21.9 mph 16.6 mph 82% 0.00 in 156.00 W/m2
08:27 35.2 °F 30.6 °F 30.20 in NNE 22.0 mph 16.1 mph 83% 0.00 in 139.00 W/m2
08:32 35.2 °F 30.9 °F 30.21 in NNE 13.0 mph 11.0 mph 84% 0.00 in 121.00 W/m2
08:37 34.9 °F 30.3 °F 30.21 in NNE 20.7 mph 15.7 mph 83% 0.00 in 113.00 W/m2
08:42 34.8 °F 30.2 °F 30.21 in NNE 19.6 mph 13.5 mph 83% 0.00 in 130.00 W/m2
08:47 34.8 °F 29.9 °F 30.22 in NE 17.3 mph 13.8 mph 82% 0.00 in 151.00 W/m2
08:51 35.0 °F 30.1 °F 30.22 in North 19.6 mph 12.0 mph 82% 0.00 in 167.00 W/m2
08:56 35.2 °F 30.3 °F 30.22 in NE 17.3 mph 13.1 mph 82% 0.00 in 176.00 W/m2
09:02 35.3 °F 30.4 °F 30.22 in NNE 18.4 mph 14.3 mph 82% 0.00 in 195.00 W/m2
09:07 35.4 °F 30.5 °F 30.22 in NNE 17.0 mph 11.1 mph 82% 0.00 in 195.00 W/m2
09:12 35.3 °F 30.1 °F 30.22 in NE 16.1 mph 13.1 mph 81% 0.00 in 128.00 W/m2
09:17 35.2 °F 30.3 °F 30.22 in NNE 15.0 mph 11.9 mph 82% 0.00 in 172.00 W/m2
09:22 36.0 °F 31.3 °F 30.22 in NNE 13.8 mph 11.4 mph 83% 0.00 in 466.00 W/m2
09:26 36.8 °F 31.5 °F 30.22 in NNE 19.6 mph 14.1 mph 81% 0.00 in 471.00 W/m2
09:31 37.2 °F 31.9 °F 30.22 in NNE 20.7 mph 15.7 mph 81% 0.00 in 485.00 W/m2
09:37 37.5 °F 31.9 °F 30.23 in NNE 16.1 mph 14.0 mph 80% 0.00 in 503.00 W/m2
09:42 37.6 °F 32.0 °F 30.23 in NE 19.6 mph 13.9 mph 80% 0.00 in 517.00 W/m2
09:47 37.7 °F 32.1 °F 30.23 in NE 16.1 mph 12.5 mph 80% 0.00 in 531.00 W/m2
09:52 38.4 °F 32.8 °F 30.23 in NNE 18.4 mph 14.3 mph 80% 0.00 in 545.00 W/m2
09:57 38.2 °F 32.3 °F 30.23 in NE 17.3 mph 14.8 mph 79% 0.00 in 563.00 W/m2
10:02 38.9 °F 33.6 °F 30.23 in NNE 15.0 mph 12.5 mph 81% 0.00 in 573.00 W/m2
10:07 38.7 °F 32.1 °F 30.23 in NNE 20.7 mph 14.4 mph 77% 0.00 in 587.00 W/m2
10:12 38.8 °F 32.8 °F 30.24 in NNE 19.6 mph 11.4 mph 79% 0.00 in 598.00 W/m2
10:17 39.4 °F 33.7 °F 30.24 in NE 17.3 mph 13.1 mph 80% 0.00 in 612.00 W/m2
10:22 39.5 °F 33.8 °F 30.24 in North 19.6 mph 13.2 mph 80% 0.00 in 624.00 W/m2
10:27 39.6 °F 33.3 °F 30.24 in NNE 17.3 mph 11.8 mph 78% 0.00 in 638.00 W/m2
10:31 39.6 °F 33.3 °F 30.25 in NNE 16.1 mph 13.0 mph 78% 0.00 in 649.00 W/m2
10:36 39.6 °F 33.6 °F 30.25 in NNE 19.6 mph 15.4 mph 79% 0.00 in 657.00 W/m2
10:41 39.7 °F 33.4 °F 30.25 in NNE 19.6 mph 12.4 mph 78% 0.00 in 673.00 W/m2
10:47 40.0 °F 33.4 °F 30.25 in North 16.1 mph 12.0 mph 77% 0.00 in 680.00 W/m2
10:52 40.2 °F 33.9 °F 30.25 in NNE 18.4 mph 13.3 mph 78% 0.00 in 694.00 W/m2
10:57 40.5 °F 34.2 °F 30.25 in NNE 19.6 mph 14.2 mph 78% 0.00 in 703.00 W/m2
11:02 40.1 °F 33.5 °F 30.25 in NNE 15.0 mph 11.4 mph 77% 0.00 in 714.00 W/m2
11:07 40.1 °F 33.1 °F 30.26 in NNE 19.6 mph 13.9 mph 76% 0.00 in 733.00 W/m2
11:12 40.4 °F 33.8 °F 30.25 in NNE 18.4 mph 12.3 mph 77% 0.00 in 729.00 W/m2
11:16 40.6 °F 33.3 °F 30.26 in NE 16.1 mph 14.7 mph 75% 0.00 in 740.00 W/m2
11:21 40.8 °F 34.1 °F 30.26 in North 15.0 mph 13.0 mph 77% 0.00 in 745.00 W/m2
11:26 41.0 °F 33.7 °F 30.26 in NNE 19.6 mph 13.9 mph 75% 0.00 in 751.00 W/m2
11:31 41.0 °F 33.7 °F 30.26 in NE 18.0 mph 11.2 mph 75% 0.00 in 759.00 W/m2
11:36 41.4 °F 34.4 °F 30.26 in NNE 18.4 mph 13.1 mph 76% 0.00 in 766.00 W/m2
11:41 41.2 °F 33.5 °F 30.26 in NNE 18.4 mph 13.6 mph 74% 0.00 in 775.00 W/m2
11:46 41.5 °F 33.8 °F 30.26 in NNE 14.0 mph 10.8 mph 74% 0.00 in 775.00 W/m2
11:52 42.1 °F 35.1 °F 30.26 in NE 18.4 mph 13.0 mph 76% 0.00 in 788.00 W/m2
11:57 41.9 °F 33.9 °F 30.27 in NE 19.6 mph 12.4 mph 73% 0.00 in 795.00 W/m2
12:01 42.0 °F 34.6 °F 30.27 in NNE 13.8 mph 12.3 mph 75% 0.00 in 798.00 W/m2
12:06 42.3 °F 34.9 °F 30.27 in NNE 14.0 mph 12.0 mph 75% 0.00 in 805.00 W/m2
12:11 42.4 °F 34.4 °F 30.27 in North 13.8 mph 11.1 mph 73% 0.00 in 805.00 W/m2
12:16 42.5 °F 34.1 °F 30.27 in NNE 17.3 mph 10.5 mph 72% 0.00 in 810.00 W/m2
12:21 42.3 °F 33.6 °F 30.27 in NNE 11.5 mph 8.0 mph 71% 0.00 in 814.00 W/m2
12:26 42.6 °F 34.2 °F 30.27 in NNE 18.4 mph 18.0 mph 72% 0.00 in 816.00 W/m2
12:31 42.6 °F 33.9 °F 30.27 in NNE 15.0 mph 10.8 mph 71% 0.00 in 819.00 W/m2
12:35 42.4 °F 33.3 °F 30.27 in NNE 17.3 mph 12.9 mph 70% 0.00 in 824.00 W/m2
12:40 43.1 °F 35.4 °F 30.27 in North 16.1 mph 10.0 mph 74% 0.00 in 824.00 W/m2
12:45 42.9 °F 33.4 °F 30.27 in NE 19.6 mph 14.5 mph 69% 0.00 in 824.00 W/m2
12:50 43.3 °F 34.9 °F 30.27 in NE 17.3 mph 13.5 mph 72% 0.00 in 826.00 W/m2
12:55 43.9 °F 35.8 °F 30.27 in NE 11.5 mph 9.8 mph 73% 0.00 in 826.00 W/m2
13:00 44.1 °F 34.9 °F 30.27 in NNE 16.1 mph 12.8 mph 70% 0.00 in 828.00 W/m2
13:05 44.0 °F 34.5 °F 30.27 in North 16.1 mph 11.0 mph 69% 0.00 in 828.00 W/m2
13:09 43.7 °F 34.2 °F 30.27 in NNE 18.4 mph 11.6 mph 69% 0.00 in 826.00 W/m2
13:15 43.5 °F 34.4 °F 30.27 in North 15.0 mph 11.1 mph 70% 0.00 in 823.00 W/m2
13:19 43.8 °F 34.3 °F 30.27 in NNE 16.0 mph 14.9 mph 69% 0.00 in 823.00 W/m2
13:24 43.7 °F 34.2 °F 30.27 in NE 17.3 mph 12.2 mph 69% 0.00 in 823.00 W/m2
13:29 43.9 °F 34.4 °F 30.27 in NNE 15.0 mph 10.9 mph 69% 0.00 in 819.00 W/m2
13:34 43.9 °F 33.6 °F 30.27 in NNE 19.6 mph 13.3 mph 67% 0.00 in 817.00 W/m2
13:39 43.9 °F 33.3 °F 30.27 in NNE 13.8 mph 10.8 mph 66% 0.00 in 812.00 W/m2
13:44 44.0 °F 34.1 °F 30.27 in NNE 15.0 mph 12.4 mph 68% 0.00 in 810.00 W/m2
13:49 44.2 °F 34.7 °F 30.27 in NNW 15.0 mph 11.5 mph 69% 0.00 in 809.00 W/m2
13:53 44.2 °F 33.9 °F 30.27 in NNE 16.1 mph 13.6 mph 67% 0.00 in 803.00 W/m2
13:58 44.0 °F 34.1 °F 30.27 in NNE 20.7 mph 15.9 mph 68% 0.00 in 800.00 W/m2
14:03 43.6 °F 33.4 °F 30.27 in NNE 19.6 mph 15.0 mph 67% 0.00 in 796.00 W/m2
14:08 44.0 °F 34.1 °F 30.27 in North 15.0 mph 11.8 mph 68% 0.00 in 789.00 W/m2
14:13 43.9 °F 33.6 °F 30.27 in North 18.4 mph 13.5 mph 67% 0.00 in 788.00 W/m2
14:18 43.9 °F 34.0 °F 30.27 in North 17.3 mph 14.3 mph 68% 0.00 in 782.00 W/m2
14:23 44.1 °F 33.8 °F 30.27 in NNE 19.6 mph 14.2 mph 67% 0.00 in 775.00 W/m2
14:27 44.2 °F 33.9 °F 30.26 in North 17.3 mph 12.7 mph 67% 0.00 in 768.00 W/m2
14:33 44.1 °F 33.1 °F 30.26 in NNE 15.0 mph 13.0 mph 65% 0.00 in 761.00 W/m2
14:38 44.2 °F 33.6 °F 30.26 in NNE 13.8 mph 11.2 mph 66% 0.00 in 754.00 W/m2
14:43 44.3 °F 32.5 °F 30.26 in NNE 15.0 mph 10.4 mph 63% 0.00 in 747.00 W/m2
14:48 44.3 °F 32.5 °F 30.26 in NNE 19.6 mph 12.4 mph 63% 0.00 in 737.00 W/m2
14:53 44.4 °F 33.4 °F 30.26 in NNE 16.1 mph 11.1 mph 65% 0.00 in 729.00 W/m2
14:58 44.5 °F 32.3 °F 30.25 in NNE 18.4 mph 14.7 mph 62% 0.00 in 722.00 W/m2
15:03 44.4 °F 32.2 °F 30.25 in North 19.6 mph 15.9 mph 62% 0.00 in 710.00 W/m2
15:08 44.2 °F 32.4 °F 30.26 in North 13.8 mph 11.1 mph 63% 0.00 in 701.00 W/m2
15:13 44.4 °F 31.8 °F 30.26 in NNE 18.4 mph 13.6 mph 61% 0.00 in 691.00 W/m2
15:18 44.5 °F 32.7 °F 30.25 in NNE 17.3 mph 14.0 mph 63% 0.00 in 680.00 W/m2
15:23 44.3 °F 31.7 °F 30.26 in NNE 18.4 mph 12.4 mph 61% 0.00 in 670.00 W/m2
15:28 44.1 °F 31.1 °F 30.26 in NNE 18.4 mph 13.4 mph 60% 0.00 in 657.00 W/m2
15:31 44.2 °F 32.0 °F 30.26 in NNE 17.3 mph 12.7 mph 62% 0.00 in 654.00 W/m2
15:36 44.4 °F 32.2 °F 30.26 in North 17.3 mph 12.7 mph 62% 0.00 in 642.00 W/m2
15:44 43.8 °F 30.4 °F 30.26 in NNE 17.3 mph 13.8 mph 59% 0.00 in 619.00 W/m2
15:53 43.8 °F 30.4 °F 30.26 in NNE 18.4 mph 12.6 mph 59% 0.00 in 599.00 W/m2
15:58 43.5 °F 30.1 °F 30.26 in NNE 19.6 mph 14.4 mph 59% 0.00 in 584.00 W/m2
16:03 43.5 °F 30.1 °F 30.26 in North 17.3 mph 12.8 mph 59% 0.00 in 570.00 W/m2
16:08 43.4 °F 30.0 °F 30.26 in NNE 18.4 mph 13.4 mph 59% 0.00 in 557.00 W/m2
16:13 43.2 °F 29.4 °F 30.26 in NNE 17.3 mph 10.5 mph 58% 0.00 in 545.00 W/m2
16:18 43.4 °F 29.6 °F 30.26 in NNE 18.4 mph 12.2 mph 58% 0.00 in 531.00 W/m2
16:23 43.7 °F 30.3 °F 30.26 in NNE 16.1 mph 13.6 mph 59% 0.00 in 517.00 W/m2
16:29 43.2 °F 29.4 °F 30.27 in NE 18.4 mph 13.1 mph 58% 0.00 in 496.00 W/m2
16:33 43.2 °F 30.2 °F 30.27 in NNE 17.3 mph 8.2 mph 60% 0.00 in 482.00 W/m2
16:39 43.2 °F 29.8 °F 30.27 in NNE 15.0 mph 11.7 mph 59% 0.00 in 468.00 W/m2
16:44 43.0 °F 29.6 °F 30.27 in NE 18.4 mph 14.3 mph 59% 0.00 in 446.00 W/m2
16:49 42.7 °F 28.9 °F 30.27 in NE 19.0 mph 12.3 mph 58% 0.00 in 431.00 W/m2
16:54 42.4 °F 28.2 °F 30.27 in NE 18.4 mph 10.8 mph 57% 0.00 in 415.00 W/m2
16:59 42.3 °F 28.6 °F 30.27 in NE 15.0 mph 12.8 mph 58% 0.00 in 397.00 W/m2
17:04 42.3 °F 29.0 °F 30.27 in NE 16.1 mph 10.8 mph 59% 0.00 in 381.00 W/m2
17:09 42.4 °F 29.5 °F 30.27 in NNE 12.7 mph 8.8 mph 60% 0.00 in 367.00 W/m2
17:14 42.1 °F 28.4 °F 30.27 in NNE 16.1 mph 13.9 mph 58% 0.00 in 353.00 W/m2
17:19 41.9 °F 29.0 °F 30.27 in North 18.4 mph 13.5 mph 60% 0.00 in 334.00 W/m2
17:24 41.5 °F 27.8 °F 30.28 in North 16.1 mph 12.5 mph 58% 0.00 in 320.00 W/m2
17:29 41.5 °F 29.0 °F 30.28 in NE 17.3 mph 11.1 mph 61% 0.00 in 297.00 W/m2
17:34 41.5 °F 29.0 °F 30.28 in NE 15.0 mph 10.9 mph 61% 0.00 in 279.00 W/m2
17:39 41.2 °F 28.4 °F 30.28 in NNE 17.3 mph 12.2 mph 60% 0.00 in 257.00 W/m2
17:44 40.8 °F 28.0 °F 30.29 in NNE 16.1 mph 12.4 mph 60% 0.00 in 239.00 W/m2
17:49 40.5 °F 28.1 °F 30.29 in NNE 16.1 mph 11.8 mph 61% 0.00 in 216.00 W/m2
17:54 40.1 °F 26.9 °F 30.29 in NNE 15.0 mph 11.9 mph 59% 0.00 in 193.00 W/m2
17:59 39.8 °F 25.8 °F 30.29 in NE 18.4 mph 13.8 mph 57% 0.00 in 172.00 W/m2
18:04 39.6 °F 26.0 °F 30.30 in NNE 17.3 mph 12.9 mph 58% 0.00 in 148.00 W/m2
18:09 39.3 °F 25.7 °F 30.30 in NNE 15.0 mph 10.7 mph 58% 0.00 in 128.00 W/m2
18:14 38.9 °F 25.8 °F 30.30 in NNE 12.7 mph 12.9 mph 59% 0.00 in 39.00 W/m2
18:19 38.5 °F 25.0 °F 30.30 in NNE 16.1 mph 12.7 mph 58% 0.00 in 25.00 W/m2
18:24 38.2 °F 25.9 °F 30.30 in NNE 15.0 mph 11.5 mph 61% 0.00 in 23.00 W/m2
18:29 37.9 °F 26.0 °F 30.30 in NNE 12.7 mph 10.9 mph 62% 0.00 in 21.00 W/m2
18:34 37.4 °F 25.6 °F 30.31 in NNE 16.1 mph 10.6 mph 62% 0.00 in 19.00 W/m2
18:39 37.0 °F 25.2 °F 30.31 in NE 13.8 mph 11.3 mph 62% 0.00 in 18.00 W/m2
18:44 36.5 °F 25.5 °F 30.31 in NNE 12.7 mph 10.5 mph 64% 0.00 in 16.00 W/m2
18:49 36.1 °F 25.5 °F 30.31 in NNE 15.0 mph 11.0 mph 65% 0.00 in 14.00 W/m2
18:54 35.6 °F 25.4 °F 30.31 in NNE 15.0 mph 9.9 mph 66% 0.00 in 11.00 W/m2
18:59 35.3 °F 24.7 °F 30.31 in NNE 16.0 mph 11.3 mph 65% 0.00 in 9.00 W/m2
19:04 35.1 °F 24.1 °F 30.31 in NNE 16.1 mph 13.2 mph 64% 0.00 in 7.00 W/m2
19:09 34.7 °F 23.8 °F 30.31 in NNE 13.8 mph 12.5 mph 64% 0.00 in 0.00 W/m2
19:14 34.2 °F 23.7 °F 30.31 in NNE 13.8 mph 11.3 mph 65% 0.00 in 0.00 W/m2
19:19 33.8 °F 23.3 °F 30.31 in NNE 12.7 mph 9.2 mph 65% 0.00 in 0.00 W/m2
19:24 33.4 °F 23.6 °F 30.32 in NNE 10.4 mph 8.3 mph 67% 0.00 in 0.00 W/m2
19:29 33.1 °F 23.7 °F 30.32 in NNE 11.5 mph 8.0 mph 68% 0.00 in 0.00 W/m2
19:34 32.8 °F 23.7 °F 30.31 in NE 10.4 mph 7.5 mph 69% 0.00 in 0.00 W/m2
19:39 32.5 °F 23.8 °F 30.32 in NNE 9.2 mph 7.6 mph 70% 0.00 in 0.00 W/m2
19:44 32.1 °F 24.1 °F 30.32 in NNE 8.1 mph 6.0 mph 72% 0.00 in 0.00 W/m2
19:49 31.6 °F 23.9 °F 30.31 in North 6.9 mph 5.2 mph 73% 0.00 in 0.00 W/m2
19:54 31.3 °F 24.3 °F 30.32 in NNE 6.9 mph 5.1 mph 75% 0.00 in 0.00 W/m2
19:59 31.0 °F 24.3 °F 30.32 in NNE 6.9 mph 5.2 mph 76% 0.00 in 0.00 W/m2
20:04 30.8 °F 24.1 °F 30.32 in North 6.9 mph 4.4 mph 76% 0.00 in 0.00 W/m2
20:09 30.8 °F 23.8 °F 30.32 in NNE 8.1 mph 5.1 mph 75% 0.00 in 0.00 W/m2
20:14 30.9 °F 23.9 °F 30.32 in NNE 10.4 mph 6.5 mph 75% 0.00 in 0.00 W/m2
20:19 31.1 °F 24.1 °F 30.32 in NNE 11.5 mph 8.6 mph 75% 0.00 in 0.00 W/m2
20:24 31.2 °F 23.9 °F 30.32 in North 10.4 mph 7.1 mph 74% 0.00 in 0.00 W/m2
20:29 31.1 °F 23.8 °F 30.32 in NNE 11.5 mph 7.5 mph 74% 0.00 in 0.00 W/m2
20:34 31.1 °F 23.8 °F 30.32 in North 12.7 mph 9.1 mph 74% 0.00 in 0.00 W/m2
20:39 31.1 °F 23.8 °F 30.32 in NNE 11.5 mph 10.6 mph 74% 0.00 in 0.00 W/m2
20:44 31.2 °F 23.5 °F 30.33 in NNE 13.8 mph 10.2 mph 73% 0.00 in 0.00 W/m2
20:49 31.2 °F 23.5 °F 30.33 in NNE 11.5 mph 8.2 mph 73% 0.00 in 0.00 W/m2
20:54 31.0 °F 23.7 °F 30.33 in NNE 13.8 mph 11.4 mph 74% 0.00 in 0.00 W/m2
20:59 30.9 °F 23.6 °F 30.33 in North 16.1 mph 11.2 mph 74% 0.00 in 0.00 W/m2
21:04 30.8 °F 23.5 °F 30.34 in North 13.8 mph 10.7 mph 74% 0.00 in 0.00 W/m2
21:09 30.8 °F 23.5 °F 30.34 in NNE 12.7 mph 10.6 mph 74% 0.00 in 0.00 W/m2
21:14 30.7 °F 23.4 °F 30.34 in NNE 11.5 mph 8.4 mph 74% 0.00 in 0.00 W/m2
21:19 30.5 °F 23.5 °F 30.34 in NNE 11.5 mph 9.6 mph 75% 0.00 in 0.00 W/m2
21:24 30.5 °F 23.2 °F 30.34 in North 12.7 mph 8.9 mph 74% 0.00 in 0.00 W/m2
21:29 30.5 °F 23.2 °F 30.35 in North 11.5 mph 8.5 mph 74% 0.00 in 0.00 W/m2
21:34 30.3 °F 23.0 °F 30.35 in North 11.5 mph 9.4 mph 74% 0.00 in 0.00 W/m2
21:39 30.2 °F 23.2 °F 30.35 in North 11.5 mph 8.2 mph 75% 0.00 in 0.00 W/m2
21:44 30.1 °F 23.4 °F 30.36 in North 12.7 mph 8.9 mph 76% 0.00 in 0.00 W/m2
21:49 30.0 °F 23.4 °F 30.36 in North 10.4 mph 8.1 mph 76% 0.00 in 0.00 W/m2
21:54 29.9 °F 23.6 °F 30.36 in North 10.4 mph 8.2 mph 77% 0.00 in 0.00 W/m2
21:59 29.9 °F 23.6 °F 30.36 in North 11.5 mph 8.8 mph 77% 0.00 in 0.00 W/m2
22:04 29.9 °F 23.6 °F 30.36 in North 13.8 mph 8.8 mph 77% 0.00 in 0.00 W/m2
22:09 29.9 °F 23.6 °F 30.36 in North 12.7 mph 10.2 mph 77% 0.00 in 0.00 W/m2
22:14 30.0 °F 23.7 °F 30.36 in North 13.8 mph 9.9 mph 77% 0.00 in 0.00 W/m2
22:19 30.0 °F 24.0 °F 30.37 in NNE 12.7 mph 10.9 mph 78% 0.00 in 0.00 W/m2
22:24 29.9 °F 24.2 °F 30.37 in NNW 11.5 mph 10.0 mph 79% 0.00 in 0.00 W/m2
22:29 29.8 °F 24.1 °F 30.37 in North 11.5 mph 9.9 mph 79% 0.00 in 0.00 W/m2
22:34 29.8 °F 24.1 °F 30.37 in North 11.5 mph 8.8 mph 79% 0.00 in 0.00 W/m2
22:39 29.6 °F 23.9 °F 30.37 in North 11.5 mph 9.9 mph 79% 0.00 in 0.00 W/m2
22:44 29.5 °F 24.1 °F 30.38 in North 11.5 mph 8.6 mph 80% 0.00 in 0.00 W/m2
22:49 29.4 °F 24.0 °F 30.38 in North 10.4 mph 8.3 mph 80% 0.00 in 0.00 W/m2
22:54 29.4 °F 23.7 °F 30.38 in NNW 10.4 mph 8.0 mph 79% 0.00 in 0.00 W/m2
22:59 29.3 °F 23.6 °F 30.38 in North 11.5 mph 7.6 mph 79% 0.00 in 0.00 W/m2
23:04 29.1 °F 23.4 °F 30.38 in North 9.0 mph 6.7 mph 79% 0.00 in 0.00 W/m2
23:09 29.0 °F 23.6 °F 30.39 in North 10.4 mph 7.0 mph 80% 0.00 in 0.00 W/m2
23:14 28.9 °F 23.2 °F 30.39 in North 10.4 mph 7.5 mph 79% 0.00 in 0.00 W/m2
23:19 28.9 °F 23.2 °F 30.39 in North 10.4 mph 6.5 mph 79% 0.00 in 0.00 W/m2
23:25 28.7 °F 23.0 °F 30.39 in North 10.4 mph 6.1 mph 79% 0.00 in 0.00 W/m2
23:29 28.4 °F 22.7 °F 30.39 in North 9.2 mph 5.7 mph 79% 0.00 in 0.00 W/m2
23:34 28.3 °F 22.6 °F 30.39 in North 8.0 mph 6.5 mph 79% 0.00 in 0.00 W/m2
23:39 28.3 °F 22.3 °F 30.39 in North 8.1 mph 5.9 mph 78% 0.00 in 0.00 W/m2
23:44 28.3 °F 22.3 °F 30.39 in NNW 10.4 mph 6.9 mph 78% 0.00 in 0.00 W/m2
23:49 28.3 °F 22.0 °F 30.39 in NNW 10.4 mph 7.2 mph 77% 0.00 in 0.00 W/m2
23:54 28.4 °F 22.1 °F 30.39 in NNW 10.4 mph 8.1 mph 77% 0.00 in 0.00 W/m2
23:59 28.3 °F 22.0 °F 30.39 in NNW 10.4 mph 6.4 mph 77% 0.00 in 0.00 W/m2
Bourbonnais, Illinois, USA
Compliments of Weather Underground - 2 mb